This is the latest recevied weather packets stored in our database for station/object KN4AN. If no packets are shown the sender has not sent any weather packets the latest 10 day(s).
| Time | Temp. | Humidity | Pressure | Rain* | Wind** | Luminosity | Snow |
|---|---|---|---|---|---|---|---|
| 1787929403 | 26.67° C | 68% | 1018.4 hPa | 0 mm | - | 598 W/m² | - |
| 1787929101 | 26.67° C | 72% | 1018.5 hPa | 0 mm | - | 603 W/m² | - |
| 1787928797 | 26.67° C | 71% | 1018.5 hPa | 0 mm | - | 592 W/m² | - |
| 1787928495 | 26.11° C | 73% | 1018.2 hPa | 0 mm | - | 582 W/m² | - |
| 1787928195 | 25.56° C | 74% | 1018.3 hPa | 0 mm | - | 588 W/m² | - |
| 1787927894 | 25° C | 75% | 1018.2 hPa | 0 mm | - | 576 W/m² | - |
| 1787927589 | 24.44° C | 77% | 1018.2 hPa | 0 mm | - | 571 W/m² | - |
| 1787927297 | 25° C | 77% | 1018 hPa | 0 mm | - | 183 W/m² | - |
| 1787926985 | 25° C | 75% | 1018 hPa | 0 mm | - | 196 W/m² | - |
| 1787926685 | 25.56° C | 74% | 1018 hPa | 0 mm | - | 320 W/m² | - |
| 1787926385 | 26.11° C | 74% | 1018 hPa | 0 mm | - | 590 W/m² | - |
| 1787926078 | 25.56° C | 75% | 1017.9 hPa | 0 mm | - | 530 W/m² | - |
| 1787925777 | 25° C | 77% | 1017.9 hPa | 0 mm | - | 489 W/m² | - |
| 1787925477 | 24.44° C | 77% | 1018 hPa | 0 mm | - | 455 W/m² | - |
| 1787925172 | 25° C | 76% | 1017.7 hPa | 0 mm | - | 421 W/m² | - |
| 1787924870 | 24.44° C | 78% | 1017.8 hPa | 0 mm | - | 405 W/m² | - |
| 1787924566 | 23.89° C | 79% | 1017.8 hPa | 0 mm | - | 387 W/m² | - |
| 1787924261 | 23.89° C | 79% | 1017.7 hPa | 0 mm | - | 367 W/m² | - |
| 1787923956 | 23.89° C | 80% | 1017.6 hPa | 0 mm | - | 364 W/m² | - |
| 1787923656 | 23.89° C | 79% | 1017.6 hPa | 0 mm | - | 362 W/m² | - |
| 1787923351 | 23.33° C | 81% | 1017.7 hPa | 0 mm | - | 361 W/m² | - |
| 1787923046 | 22.78° C | 82% | 1017.6 hPa | 0 mm | - | 349 W/m² | - |
| 1787922741 | 22.78° C | 83% | 1017.7 hPa | 0 mm | - | 309 W/m² | - |
| 1787922440 | 22.78° C | 83% | 1017.6 hPa | 0 mm | - | 286 W/m² | - |
| 1787922139 | 22.78° C | 82% | 1017.6 hPa | 0 mm | - | 277 W/m² | - |
* Rain latest hour (hover to see other rain measurements)
** Current wind speed in m/s (hover to see current wind gust speed)